Flight Track Log - Related Links

Times and Time Zones

All times are in EDT time to prevent confusion due to time zone crossing. See the N75ZM flight status page for this flight to view local times or setup timezone preferences in your user account.

Time Position Orientation Groundspeed Altitude Reporting Facility
EDT Latitude Longitude Course Direction KTS MPH feet Rate Location/Type
Fri 08:07:46 AM 33.8833 -84.3000 40° Northeast 81 93 1,600  Level Atlanta TRACON
Fri 08:08:46 AM 33.9000 -84.2833 40° Northeast 126 145 2,300 750 Climbing Atlanta TRACON
Fri 08:09:46 AM 33.9000 -84.2333 90° East 129 148 3,100 750 Climbing Atlanta TRACON
Fri 08:10:46 AM 33.8833 -84.2000 121° Southeast 137 158 3,800 500 Climbing Atlanta TRACON
Fri 08:11:46 AM 33.8500 -84.1833 157° South 145 167 4,100 150 Climbing Atlanta TRACON
Fri 08:12:46 AM 33.8000 -84.1667 165° South 166 191 4,100  Level Atlanta TRACON
Fri 08:13:46 AM 33.7667 -84.1333 140° Southeast 173 199 4,100  Level Atlanta TRACON
Fri 08:14:46 AM 33.7167 -84.1167 165° South 175 201 4,100  Level Atlanta TRACON
Fri 08:15:46 AM 33.6667 -84.1000 164° South 172 198 4,100  Level Atlanta TRACON
Fri 08:16:46 AM 33.6167 -84.0833 164° South 173 199 4,100  Level Atlanta TRACON
Fri 08:17:46 AM 33.5833 -84.0500 140° Southeast 178 205 4,100  Level Atlanta TRACON
Fri 08:18:46 AM 33.5333 -84.0333 164° South 173 199 4,100 200 Level Atlanta TRACON
Fri 08:19:46 AM 33.4833 -84.0167 164° South 169 194 4,500 450 Climbing Atlanta TRACON
Fri 08:20:46 AM 33.4500 -84.0000 157° South 149 171 5,000 450 Climbing Atlanta TRACON
Fri 08:21:46 AM 33.4167 -83.9667 140° Southeast 153 176 5,400 450 Climbing Atlanta TRACON
Fri 08:22:46 AM 33.3833 -83.9333 140° Southeast 151 174 5,900 500 Climbing Atlanta TRACON
Fri 08:23:46 AM 33.3500 -83.9167 157° South 150 173 6,400 500 Climbing Atlanta TRACON
Fri 08:24:46 AM 33.3000 -83.8833 151° Southeast 153 176 6,900 500 Climbing Atlanta TRACON
Fri 08:25:46 AM 33.2667 -83.8667 157° South 152 175 7,400 500 Climbing Atlanta TRACON
Fri 08:26:46 AM 33.2333 -83.8333 140° Southeast 147 169 7,900 500 Climbing Atlanta TRACON
Fri 08:27:46 AM 33.2000 -83.8167 157° South 142 163 8,400 400 Climbing Atlanta TRACON
Fri 08:28:46 AM 33.1667 -83.7833 140° Southeast 149 171 8,700 250 Climbing Atlanta TRACON
Fri 08:29:46 AM 33.1333 -83.7667 157° South 154 177 8,900 200 Climbing Atlanta TRACON
Fri 08:30:46 AM 33.1000 -83.7333 140° Southeast 160 184 9,100 100 Climbing Atlanta TRACON
Fri 08:31:46 AM 33.0500 -83.7000 151° Southeast 170 196 9,100  Level Atlanta TRACON
Fri 08:32:46 AM 33.0167 -83.6667 140° Southeast 170 196 9,100  Level Atlanta TRACON
Fri 08:33:46 AM 32.9667 -83.6500 164° South 169 194 9,100  Level Atlanta TRACON
Fri 08:34:46 AM 32.9333 -83.6167 140° Southeast 167 192 9,100  Level Atlanta TRACON
Fri 08:35:46 AM 32.9000 -83.5833 140° Southeast 168 193 9,100  Level Atlanta TRACON
Fri 08:36:47 AM 32.8500 -83.5667 164° South 169 194 9,100  Level Atlanta TRACON
Fri 08:37:47 AM 32.8167 -83.5333 140° Southeast 170 196 9,100  Level Atlanta TRACON
Fri 08:38:47 AM 32.7667 -83.5000 151° Southeast 171 197 9,100  Level Atlanta TRACON
Fri 08:39:47 AM 32.7333 -83.4667 140° Southeast 170 196 9,100  Level Atlanta TRACON
Fri 08:40:47 AM 32.7000 -83.4500 157° South 169 194 9,100  Level Atlanta TRACON
Fri 08:41:47 AM 32.6500 -83.4167 151° Southeast 168 193 9,100  Level Atlanta TRACON
Fri 08:42:47 AM 32.6167 -83.3833 140° Southeast 167 192 9,100  Level Atlanta TRACON
Fri 08:43:47 AM 32.5667 -83.3667 164° South 168 193 9,100  Level Atlanta TRACON
Fri 08:44:46 AM 32.5333 -83.3333 140° Southeast 166 191 9,100  Level Atlanta TRACON
Fri 08:45:47 AM 32.5000 -83.3000 140° Southeast 167 192 9,100  Level Atlanta TRACON
Fri 08:46:47 AM 32.4500 -83.2667 151° Southeast 168 193 9,100  Level Atlanta TRACON
Fri 08:47:47 AM 32.4167 -83.2500 157° South 167 192 9,100  Level Atlanta TRACON
Fri 08:49:10 AM 32.3603 -83.2075 148° Southeast 184 212 9,100  Level Jacksonville Center
Fri 08:50:10 AM 32.3186 -83.1778 149° Southeast 177 204 9,100  Level Jacksonville Center
Fri 08:51:10 AM 32.2789 -83.1481 148° Southeast 177 204 9,100 50 Level Jacksonville Center
Fri 08:52:10 AM 32.2394 -83.1186 148° Southeast 171 197 9,200  Climbing Jacksonville Center
Fri 08:53:10 AM 32.1978 -83.0889 149° Southeast 171 197 9,100  Descending Jacksonville Center
Fri 08:54:10 AM 32.1581 -83.0644 152° Southeast 171 197 9,200  Climbing Jacksonville Center
Fri 08:55:10 AM 32.1183 -83.0347 148° Southeast 171 197 9,100  Descending Jacksonville Center
Fri 08:56:10 AM 32.0747 -83.0053 150° Southeast 171 197 9,200  Climbing Jacksonville Center
Fri 08:57:10 AM 32.0350 -82.9758 148° Southeast 171 197 9,100  Descending Jacksonville Center
Fri 08:58:10 AM 31.9953 -82.9489 150° Southeast 171 197 9,200  Climbing Jacksonville Center
Fri 08:59:10 AM 31.9536 -82.9194 149° Southeast 171 197 9,100  Descending Jacksonville Center
Fri 09:00:10 AM 31.9119 -82.8903 149° Southeast 171 197 9,200  Climbing Jacksonville Center
Fri 09:01:10 AM 31.8722 -82.8608 148° Southeast 171 197 9,100  Descending Jacksonville Center
Fri 09:02:10 AM 31.8325 -82.8339 150° Southeast 166 191 9,200  Climbing Jacksonville Center
Fri 09:03:10 AM 31.7906 -82.8044 149° Southeast 166 191 9,100 -50 Descending Jacksonville Center
Fri 09:04:10 AM 31.7511 -82.7753 148° Southeast 166 191 9,100  Level Jacksonville Center
Fri 09:05:10 AM 31.7133 -82.7486 149° Southeast 166 191 9,100 50 Level Jacksonville Center
Fri 09:06:10 AM 31.6694 -82.7242 155° Southeast 166 191 9,200 50 Climbing Jacksonville Center
Fri 09:07:10 AM 31.6319 -82.6925 144° Southeast 166 191 9,200  Level Jacksonville Center
Fri 09:08:10 AM 31.5900 -82.6658 152° Southeast 166 191 9,200 -50 Level Jacksonville Center
Fri 09:09:10 AM 31.5567 -82.6389 145° Southeast 166 191 9,100  Descending Jacksonville Center
Fri 09:10:10 AM 31.5147 -82.6122 152° Southeast 166 191 9,200  Climbing Jacksonville Center
Fri 09:11:10 AM 31.4750 -82.5856 150° Southeast 166 191 9,100  Descending Jacksonville Center
Fri 09:12:10 AM 31.4458 -82.5639 148° Southeast 166 191 9,200  Climbing Jacksonville Center
Fri 09:13:10 AM 31.4039 -82.5347 149° Southeast 166 191 9,100 -50 Descending Jacksonville Center
Fri 09:14:10 AM 31.3581 -82.5106 156° South 166 191 9,100 50 Level Jacksonville Center
Fri 09:15:10 AM 31.3181 -82.4817 148° Southeast 166 191 9,200  Climbing Jacksonville Center
Fri 09:16:10 AM 31.2806 -82.4525 146° Southeast 166 191 9,100  Descending Jacksonville Center
Fri 09:17:10 AM 31.2428 -82.4261 149° Southeast 166 191 9,200  Climbing Jacksonville Center
Fri 09:18:10 AM 31.2031 -82.3994 150° Southeast 166 191 9,100 -50 Descending Jacksonville Center
Fri 09:19:10 AM 31.1633 -82.3706 148° Southeast 166 191 9,100 107 Level Jacksonville Center
Fri 09:20:02 AM 31.1297 -82.3464 148° Southeast 164 189 9,300 300 Climbing Jacksonville Center
Fri 09:20:10 AM 31.1236 -82.3442 163° South 166 191 9,400 490 Climbing Jacksonville Center
Fri 09:20:51 AM 31.1025 -82.3272 145° Southeast 154 177 9,700 400 Climbing Jacksonville Center
Fri 09:21:10 AM 31.0900 -82.3200 154° Southeast 161 185 9,800 295 Climbing Jacksonville Center
Fri 09:21:52 AM 31.0711 -82.3056 147° Southeast 136 157 10,000 300 Climbing Jacksonville Center
Fri 09:22:10 AM 31.0564 -82.2961 151° Southeast 155 178 10,100 200 Climbing Jacksonville Center
Fri 09:22:52 AM 31.0356 -82.2792 145° Southeast 144 166 10,200 100 Climbing Jacksonville Center
Fri 09:23:10 AM 31.0208 -82.2719 157° South 155 178 10,200  Level Jacksonville Center
Fri 09:23:53 AM 30.9936 -82.2503 146° Southeast 162 186 10,200 -100 Level Jacksonville Center
Fri 09:24:10 AM 30.9811 -82.2456 162° South 155 178 10,100  Descending Jacksonville Center
Fri 09:24:54 AM 30.9517 -82.2239 148° Southeast 170 196 10,200 100 Climbing Jacksonville Center
Fri 09:25:10 AM 30.9411 -82.2167 150° Southeast 166 191 10,200  Level Jacksonville Center
Fri 09:25:49 AM 30.9161 -82.2000 150° Southeast 170 196 10,200  Level Jacksonville Center
Fri 09:26:10 AM 30.9014 -82.1906 151° Southeast 166 191 10,200  Level Jacksonville Center
Fri 09:26:50 AM 30.8742 -82.1714 149° Southeast 170 196 10,200  Level Jacksonville Center
Fri 09:27:10 AM 30.8594 -82.1617 150° Southeast 166 191 10,200  Level Jacksonville Center
Fri 09:27:50 AM 30.8344 -82.1425 147° Southeast 169 194 10,200  Level Jacksonville Center
Fri 09:28:10 AM 30.8197 -82.1331 151° Southeast 166 191 10,200 -98 Level Jacksonville Center
Fri 09:28:51 AM 30.7944 -82.1164 150° Southeast 169 194 10,100  Descending Jacksonville Center
Fri 09:29:10 AM 30.7797 -82.1042 145° Southeast 166 191 10,200 98 Climbing Jacksonville Center
Fri 09:29:52 AM 30.7525 -82.0875 152° Southeast 169 194 10,200  Level Jacksonville Center
Fri 09:30:59 AM 30.7064 -82.0567 150° Southeast 169 194 10,200  Level Jacksonville Center
Fri 09:32:00 AM 30.6644 -82.0281 150° Southeast 171 197 10,200  Level Jacksonville Center
Fri 09:33:01 AM 30.6247 -81.9994 148° Southeast 171 197 10,200 -47 Level Jacksonville Center
Fri 09:34:08 AM 30.5764 -81.9661 149° Southeast 172 198 10,100  Descending Jacksonville Center
Fri 09:35:09 AM 30.5344 -81.9400 152° Southeast 172 198 10,200  Climbing Jacksonville Center
Fri 09:36:10 AM 30.4944 -81.9114 148° Southeast 173 199 10,100  Descending Jacksonville Center
Fri 09:37:04 AM 30.4567 -81.8853 149° Southeast 172 198 10,200 52 Climbing Jacksonville Center
Fri 09:38:05 AM 30.4125 -81.8569 151° Southeast 171 197 10,200  Level Jacksonville Center
Fri 09:39:06 AM 30.3706 -81.8283 150° Southeast 171 197 10,200  Level Jacksonville Center
Fri 09:40:07 AM 30.3286 -81.8025 152° Southeast 172 198 10,200  Level Jacksonville Center
Fri 09:41:08 AM 30.2886 -81.7692 144° Southeast 169 194 10,200  Level Jacksonville Center
Fri 09:42:03 AM 30.2531 -81.7478 153° Southeast 170 196 10,200  Level Jacksonville Center
Fri 09:43:04 AM 30.2089 -81.7172 149° Southeast 168 193 10,200  Level Jacksonville Center
Fri 09:44:05 AM 30.1669 -81.6914 152° Southeast 169 194 10,200  Level Jacksonville Center
Fri 09:45:12 AM 30.1250 -81.6631 150° Southeast 170 196 10,200  Level Jacksonville Center
Fri 09:46:13 AM 30.0808 -81.6322 149° Southeast 168 193 10,200  Level Jacksonville Center
Fri 09:47:07 AM 30.0472 -81.6089 149° Southeast 169 194 10,200  Level Jacksonville Center
Fri 09:48:28 AM 29.9903 -81.5736 152° Southeast 170 196 10,200  Level Jacksonville Center
Fri 09:49:22 AM 29.9525 -81.5478 149° Southeast 170 196 10,200  Level Jacksonville Center
Fri 09:50:23 AM 29.9125 -81.5219 151° Southeast 171 197 10,200 -52 Level Jacksonville Center
Fri 09:51:18 AM 29.8747 -81.4936 147° Southeast 172 198 10,100 -52 Descending Jacksonville Center
Fri 09:52:19 AM 29.8325 -81.4656 150° Southeast 171 197 10,100  Level Jacksonville Center
Fri 09:53:20 AM 29.7906 -81.4375 150° Southeast 172 198 10,100  Level Jacksonville Center
Fri 09:54:33 AM 29.7400 -81.4072 153° Southeast 172 198 10,100  Level Jacksonville Center
Fri 09:55:34 AM 29.6981 -81.3767 148° Southeast 172 198 10,100  Level Jacksonville Center
Fri 09:56:35 AM 29.6558 -81.3486 150° Southeast 170 196 10,100  Level Jacksonville Center
Fri 09:57:36 AM 29.6117 -81.3231 153° Southeast 171 197 10,100  Level Jacksonville Center
Fri 09:58:37 AM 29.5697 -81.3000 154° Southeast 171 197 10,100  Level Jacksonville Center
Fri 09:59:32 AM 29.5278 -81.2792 157° South 172 198 10,100  Level Jacksonville Center
Fri 10:00:33 AM 29.4856 -81.2558 154° Southeast 172 198 10,100 49 Level Jacksonville Center
Fri 10:01:34 AM 29.4436 -81.2328 154° Southeast 172 198 10,200  Climbing Jacksonville Center
Fri 10:02:34 AM 29.3931 -81.2050 154° Southeast 173 199 10,100 -52 Descending Jacksonville Center
Fri 10:03:29 AM 29.3617 -81.1864 153° Southeast 171 197 10,100  Level Jacksonville Center
Fri 10:04:36 AM 29.3111 -81.1611 156° South 172 198 10,100 47 Level Jacksonville Center
Fri 10:05:37 AM 29.2731 -81.1261 141° Southeast 170 196 10,200  Climbing Jacksonville Center
Fri 10:06:38 AM 29.2350 -81.0911 141° Southeast 171 197 10,100  Descending Jacksonville Center
Fri 10:07:33 AM 29.1992 -81.0608 144° Southeast 170 196 10,200  Climbing Jacksonville Center
Fri 10:10:03 AM 29.0833 -81.0167 162° South 177 204 10,100 -28 Descending Orlando TRACON
Fri 10:11:04 AM 29.0333 -81.0000 164° South 175 201 10,100 50 Level Orlando TRACON
Fri 10:12:04 AM 28.9833 -80.9833 164° South 174 200 10,200  Climbing Orlando TRACON
Fri 10:13:04 AM 28.9500 -80.9667 156° South 171 197 10,100  Descending Orlando TRACON
Fri 10:14:04 AM 28.9000 -80.9500 164° South 171 197 10,200  Climbing Orlando TRACON
Fri 10:15:04 AM 28.8500 -80.9333 164° South 172 198 10,100 -198 Descending Orlando TRACON
Fri 10:16:05 AM 28.8000 -80.9167 164° South 180 207 9,800 -496 Descending Orlando TRACON
Fri 10:17:05 AM 28.7500 -80.9000 164° South 197 227 9,100 -700 Descending Orlando TRACON
Fri 10:18:05 AM 28.7000 -80.8667 150° Southeast 202 232 8,400 -500 Descending Orlando TRACON
Fri 10:19:05 AM 28.6500 -80.8500 164° South 191 220 8,100 -248 Descending Orlando TRACON
Fri 10:20:06 AM 28.6000 -80.8333 164° South 178 205 7,900 -398 Descending Orlando TRACON
Fri 10:22:06 AM 28.5000 -80.7833 156° South 195 224 6,900 -500 Descending Orlando TRACON
Fri 10:23:06 AM 28.4500 -80.7667 164° South 195 224 6,400 -496 Descending Orlando TRACON
Fri 10:24:07 AM 28.4000 -80.7667 180° South 193 222 5,900 -496 Descending Orlando TRACON
Fri 10:25:07 AM 28.3333 -80.7667 180° South 198 228 5,400 -500 Descending Orlando TRACON
Fri 10:26:07 AM 28.2833 -80.7667 180° South 196 226 4,900 -550 Descending Orlando TRACON
Fri 10:27:07 AM 28.2333 -80.7667 180° South 193 222 4,300 -333 Descending Orlando TRACON
Fri 10:28:13 AM 28.1667 -80.7667 180° South 187 215 4,200 -48 Descending Orlando TRACON
Fri 10:29:13 AM 28.1333 -80.7667 180° South 174 200 4,200  Level Orlando TRACON
Fri 10:30:14 AM 28.0833 -80.7500 164° South 174 200 4,200  Level Orlando TRACON
Fri 10:31:08 AM 28.0333 -80.7500 180° South 172 198 4,200 -38 Level Orlando TRACON
Fri 10:32:52 AM 27.9494 -80.7539 182° South 182 209 4,100 -37 Descending Miami Center
Fri 10:33:52 AM 27.9014 -80.7500 176° South 176 203 4,100  Level Miami Center
Fri 10:34:52 AM 27.8536 -80.7483 178° South 176 203 4,100 50 Level Miami Center
Fri 10:35:52 AM 27.8097 -80.7467 178° South 176 203 4,200 50 Climbing Miami Center
Fri 10:36:52 AM 27.7619 -80.7428 176° South 176 203 4,200  Level Miami Center
Fri 10:37:52 AM 27.7208 -80.7181 152° Southeast 161 185 4,200  Level Miami Center
Fri 10:38:52 AM 27.6947 -80.6772 126° Southeast 155 178 4,200 -50 Level Miami Center
Fri 10:39:52 AM 27.6667 -80.6364 128° Southeast 165 190 4,100 -300 Descending Miami Center
Fri 10:40:52 AM 27.6425 -80.5981 125° Southeast 165 190 3,600 -500 Descending Miami Center
Fri 10:41:52 AM 27.6164 -80.5575 126° Southeast 165 190 3,100 -550 Descending Miami Center
Fri 10:42:52 AM 27.5819 -80.5189 135° Southeast 160 184 2,500 -300 Descending Miami Center
Fri 10:43:52 AM 27.5556 -80.4853 132° Southeast 160 184 2,500 750 Level Miami Center
Fri 10:44:52 AM 27.5411 -80.4825 170° South 160 184 4,000 -500 Climbing Miami Center
Fri 10:45:52 AM 27.4961 -80.4411 141° Southeast 146 168 1,500 -1,650 Descending Miami Center
Fri 10:46:52 AM 27.4972 -80.4039 88° East 108 124 700 -800 Descending Miami Center
Fri 10:48:00 AM 27.4975 -80.3726 130° Southeast  Level Estimated

Login

Don't have an account? Register now (free) for customized features, flight alerts, and more!